sensor_id;sensor_type;location;lat;lon;timestamp;pressure;altitude;pressure_sealevel;temperature;humidity
78337;BME280;67610;51.588;7.002;2023-07-20T00:02:10;100635.97;;;19.59;60.75
78337;BME280;67610;51.588;7.002;2023-07-20T00:04:36;100640.06;;;19.55;60.65
78337;BME280;67610;51.588;7.002;2023-07-20T00:07:01;100636.16;;;19.50;60.79
78337;BME280;67610;51.588;7.002;2023-07-20T00:09:27;100625.53;;;19.44;61.26
78337;BME280;67610;51.588;7.002;2023-07-20T00:11:52;100632.28;;;19.46;61.09
78337;BME280;67610;51.588;7.002;2023-07-20T00:14:18;100632.06;;;19.48;61.43
78337;BME280;67610;51.588;7.002;2023-07-20T00:16:49;100629.00;;;19.51;61.07
78337;BME280;67610;51.588;7.002;2023-07-20T00:19:27;100624.47;;;19.52;61.37
78337;BME280;67610;51.588;7.002;2023-07-20T00:21:53;100620.56;;;19.47;61.42
78337;BME280;67610;51.588;7.002;2023-07-20T00:24:20;100629.59;;;19.53;60.88
78337;BME280;67610;51.588;7.002;2023-07-20T00:26:45;100628.16;;;19.57;60.63
78337;BME280;67610;51.588;7.002;2023-07-20T00:29:10;100625.50;;;19.50;60.95
78337;BME280;67610;51.588;7.002;2023-07-20T00:31:36;100620.38;;;19.49;60.93
78337;BME280;67610;51.588;7.002;2023-07-20T00:34:03;100619.34;;;19.50;61.08
78337;BME280;67610;51.588;7.002;2023-07-20T00:36:28;100614.59;;;19.52;61.04
78337;BME280;67610;51.588;7.002;2023-07-20T00:38:54;100617.91;;;19.54;60.93
78337;BME280;67610;51.588;7.002;2023-07-20T00:41:19;100613.41;;;19.48;60.70
78337;BME280;67610;51.588;7.002;2023-07-20T00:43:45;100617.72;;;19.49;61.00
78337;BME280;67610;51.588;7.002;2023-07-20T00:46:11;100614.00;;;19.50;60.84
78337;BME280;67610;51.588;7.002;2023-07-20T00:48:37;100616.66;;;19.50;60.80
78337;BME280;67610;51.588;7.002;2023-07-20T00:51:02;100609.72;;;19.49;60.96
78337;BME280;67610;51.588;7.002;2023-07-20T00:53:28;100612.38;;;19.49;61.37
78337;BME280;67610;51.588;7.002;2023-07-20T00:55:54;100610.13;;;19.46;61.01
78337;BME280;67610;51.588;7.002;2023-07-20T00:58:20;100613.00;;;19.44;61.33
78337;BME280;67610;51.588;7.002;2023-07-20T01:00:45;100615.47;;;19.46;61.05
78337;BME280;67610;51.588;7.002;2023-07-20T01:03:12;100614.63;;;19.45;61.30
78337;BME280;67610;51.588;7.002;2023-07-20T01:05:48;100617.53;;;19.44;61.23
78337;BME280;67610;51.588;7.002;2023-07-20T01:08:24;100610.34;;;19.44;61.42
78337;BME280;67610;51.588;7.002;2023-07-20T01:10:57;100608.47;;;19.45;61.56
78337;BME280;67610;51.588;7.002;2023-07-20T01:13:25;100619.38;;;19.43;61.68
78337;BME280;67610;51.588;7.002;2023-07-20T01:15:57;100615.69;;;19.38;61.55
78337;BME280;67610;51.588;7.002;2023-07-20T01:18:24;100611.38;;;19.37;61.67
78337;BME280;67610;51.588;7.002;2023-07-20T01:20:50;100613.03;;;19.38;61.64
78337;BME280;67610;51.588;7.002;2023-07-20T01:29:23;100597.81;;;19.45;61.45
78337;BME280;67610;51.588;7.002;2023-07-20T01:31:54;100603.97;;;19.45;61.14
78337;BME280;67610;51.588;7.002;2023-07-20T01:34:22;100604.59;;;19.41;61.50
78337;BME280;67610;51.588;7.002;2023-07-20T01:36:50;100607.69;;;19.38;60.99
78337;BME280;67610;51.588;7.002;2023-07-20T01:39:18;100602.31;;;19.31;61.38
78337;BME280;67610;51.588;7.002;2023-07-20T01:41:44;100602.94;;;19.27;61.82
78337;BME280;67610;51.588;7.002;2023-07-20T01:44:10;100594.34;;;19.25;61.70
78337;BME280;67610;51.588;7.002;2023-07-20T01:46:37;100591.69;;;19.25;61.81
78337;BME280;67610;51.588;7.002;2023-07-20T01:49:02;100596.00;;;19.26;62.08
78337;BME280;67610;51.588;7.002;2023-07-20T01:51:28;100591.06;;;19.23;61.84
78337;BME280;67610;51.588;7.002;2023-07-20T01:53:53;100599.28;;;19.21;62.23
78337;BME280;67610;51.588;7.002;2023-07-20T01:56:19;100596.63;;;19.21;62.14
78337;BME280;67610;51.588;7.002;2023-07-20T01:58:44;100604.19;;;19.24;62.32
78337;BME280;67610;51.588;7.002;2023-07-20T02:01:09;100598.25;;;19.22;62.64
78337;BME280;67610;51.588;7.002;2023-07-20T02:03:35;100596.19;;;19.24;62.89
78337;BME280;67610;51.588;7.002;2023-07-20T02:06:00;100598.06;;;19.24;62.98
78337;BME280;67610;51.588;7.002;2023-07-20T02:08:26;100602.75;;;19.22;63.51
78337;BME280;67610;51.588;7.002;2023-07-20T02:10:51;100599.06;;;19.23;63.34
78337;BME280;67610;51.588;7.002;2023-07-20T02:13:17;100602.16;;;19.26;63.18
78337;BME280;67610;51.588;7.002;2023-07-20T02:15:42;100606.84;;;19.24;63.53
78337;BME280;67610;51.588;7.002;2023-07-20T02:18:08;100600.53;;;19.19;63.88
78337;BME280;67610;51.588;7.002;2023-07-20T02:20:34;100601.16;;;19.14;64.24
78337;BME280;67610;51.588;7.002;2023-07-20T02:22:59;100610.16;;;19.13;64.36
78337;BME280;67610;51.588;7.002;2023-07-20T02:25:25;100608.53;;;19.06;64.97
78337;BME280;67610;51.588;7.002;2023-07-20T02:27:50;100608.97;;;19.03;65.05
78337;BME280;67610;51.588;7.002;2023-07-20T02:30:15;100604.03;;;19.00;65.15
78337;BME280;67610;51.588;7.002;2023-07-20T02:32:41;100610.59;;;18.97;65.56
78337;BME280;67610;51.588;7.002;2023-07-20T02:35:10;100615.53;;;19.00;66.02
78337;BME280;67610;51.588;7.002;2023-07-20T02:37:36;100610.59;;;18.97;65.96
78337;BME280;67610;51.588;7.002;2023-07-20T02:40:02;100608.34;;;19.01;65.67
78337;BME280;67610;51.588;7.002;2023-07-20T02:42:29;100612.03;;;18.93;66.22
78337;BME280;67610;51.588;7.002;2023-07-20T02:44:54;100606.91;;;18.85;66.23
78337;BME280;67610;51.588;7.002;2023-07-20T02:47:20;100610.38;;;18.86;66.98
78337;BME280;67610;51.588;7.002;2023-07-20T02:49:45;100608.78;;;18.85;66.86
78337;BME280;67610;51.588;7.002;2023-07-20T02:52:11;100602.41;;;18.86;66.63
78337;BME280;67610;51.588;7.002;2023-07-20T02:54:36;100613.06;;;18.86;66.79
78337;BME280;67610;51.588;7.002;2023-07-20T02:57:02;100613.06;;;18.86;66.65
78337;BME280;67610;51.588;7.002;2023-07-20T02:59:27;100610.59;;;18.84;67.20
78337;BME280;67610;51.588;7.002;2023-07-20T03:01:52;100622.50;;;18.81;66.93
78337;BME280;67610;51.588;7.002;2023-07-20T03:04:19;100628.22;;;18.78;67.31
78337;BME280;67610;51.588;7.002;2023-07-20T03:06:44;100624.94;;;18.76;67.04
78337;BME280;67610;51.588;7.002;2023-07-20T03:09:10;100629.06;;;18.72;67.33
78337;BME280;67610;51.588;7.002;2023-07-20T03:11:35;100632.94;;;18.70;68.21
78337;BME280;67610;51.588;7.002;2023-07-20T03:14:01;100625.97;;;18.69;67.80
78337;BME280;67610;51.588;7.002;2023-07-20T03:16:26;100625.34;;;18.73;68.33
78337;BME280;67610;51.588;7.002;2023-07-20T03:18:52;100627.41;;;18.71;68.10
78337;BME280;67610;51.588;7.002;2023-07-20T03:21:17;100625.16;;;18.68;67.82
78337;BME280;67610;51.588;7.002;2023-07-20T03:23:43;100625.34;;;18.67;67.71
78337;BME280;67610;51.588;7.002;2023-07-20T03:26:08;100629.06;;;18.66;68.03
78337;BME280;67610;51.588;7.002;2023-07-20T03:28:37;100640.94;;;18.70;68.48
78337;BME280;67610;51.588;7.002;2023-07-20T03:31:03;100636.03;;;18.80;68.55
78337;BME280;67610;51.588;7.002;2023-07-20T03:33:29;100643.38;;;18.71;68.36
78337;BME280;67610;51.588;7.002;2023-07-20T03:35:55;100642.38;;;18.72;68.40
78337;BME280;67610;51.588;7.002;2023-07-20T03:38:22;100648.31;;;18.74;68.57
78337;BME280;67610;51.588;7.002;2023-07-20T03:40:52;100650.38;;;18.79;68.59
78337;BME280;67610;51.588;7.002;2023-07-20T03:43:17;100650.78;;;18.76;68.42
78337;BME280;67610;51.588;7.002;2023-07-20T03:45:43;100652.00;;;18.73;68.59
78337;BME280;67610;51.588;7.002;2023-07-20T03:48:08;100650.78;;;18.76;68.55
78337;BME280;67610;51.588;7.002;2023-07-20T03:50:34;100661.44;;;18.82;68.12
78337;BME280;67610;51.588;7.002;2023-07-20T03:52:59;100665.34;;;18.93;67.91
78337;BME280;67610;51.588;7.002;2023-07-20T03:55:25;100664.75;;;18.91;67.50
78337;BME280;67610;51.588;7.002;2023-07-20T03:57:50;100665.53;;;18.78;68.01
78337;BME280;67610;51.588;7.002;2023-07-20T04:00:16;100661.66;;;18.74;68.11
78337;BME280;67610;51.588;7.002;2023-07-20T04:02:42;100664.53;;;18.73;67.93
78337;BME280;67610;51.588;7.002;2023-07-20T04:05:07;100658.16;;;18.67;67.90
78337;BME280;67610;51.588;7.002;2023-07-20T04:07:33;100657.16;;;18.68;68.17
78337;BME280;67610;51.588;7.002;2023-07-20T04:09:58;100670.44;;;18.62;68.21
78337;BME280;67610;51.588;7.002;2023-07-20T04:12:24;100669.00;;;18.59;68.08
78337;BME280;67610;51.588;7.002;2023-07-20T04:14:49;100667.97;;;18.54;68.14
78337;BME280;67610;51.588;7.002;2023-07-20T04:17:14;100671.63;;;18.46;68.05
78337;BME280;67610;51.588;7.002;2023-07-20T04:19:40;100660.56;;;18.43;68.42
78337;BME280;67610;51.588;7.002;2023-07-20T04:22:05;100662.59;;;18.41;68.18
78337;BME280;67610;51.588;7.002;2023-07-20T04:24:30;100666.31;;;18.46;68.18
78337;BME280;67610;51.588;7.002;2023-07-20T04:26:56;100667.97;;;18.47;69.62
78337;BME280;67610;51.588;7.002;2023-07-20T04:29:21;100671.16;;;18.36;68.90
78337;BME280;67610;51.588;7.002;2023-07-20T04:31:46;100671.59;;;18.40;68.60
78337;BME280;67610;51.588;7.002;2023-07-20T04:34:12;100667.72;;;18.42;68.10
78337;BME280;67610;51.588;7.002;2023-07-20T04:36:37;100672.25;;;18.48;68.12
78337;BME280;67610;51.588;7.002;2023-07-20T04:39:03;100673.31;;;18.54;67.69
78337;BME280;67610;51.588;7.002;2023-07-20T04:41:30;100678.81;;;18.46;67.86
78337;BME280;67610;51.588;7.002;2023-07-20T04:43:55;100676.72;;;18.41;68.21
78337;BME280;67610;51.588;7.002;2023-07-20T04:46:20;100677.53;;;18.42;68.20
78337;BME280;67610;51.588;7.002;2023-07-20T04:48:46;100684.75;;;18.48;68.24
78337;BME280;67610;51.588;7.002;2023-07-20T04:51:13;100691.13;;;18.60;68.19
78337;BME280;67610;51.588;7.002;2023-07-20T04:53:38;100692.97;;;18.59;68.01
78337;BME280;67610;51.588;7.002;2023-07-20T04:56:04;100693.81;;;18.66;67.60
78337;BME280;67610;51.588;7.002;2023-07-20T04:58:29;100692.19;;;18.65;67.99
78337;BME280;67610;51.588;7.002;2023-07-20T05:00:54;100696.28;;;18.61;67.97
78337;BME280;67610;51.588;7.002;2023-07-20T05:03:20;100705.72;;;18.64;67.79
78337;BME280;67610;51.588;7.002;2023-07-20T05:05:47;100705.50;;;18.65;67.92
78337;BME280;67610;51.588;7.002;2023-07-20T05:08:13;100699.78;;;18.68;67.97
78337;BME280;67610;51.588;7.002;2023-07-20T05:10:38;100708.38;;;18.77;67.48
78337;BME280;67610;51.588;7.002;2023-07-20T05:13:03;100702.66;;;18.80;67.27
78337;BME280;67610;51.588;7.002;2023-07-20T05:15:29;100706.94;;;18.88;66.88
78337;BME280;67610;51.588;7.002;2023-07-20T05:17:54;100704.94;;;18.96;66.52
78337;BME280;67610;51.588;7.002;2023-07-20T05:20:19;100706.78;;;19.02;66.27
78337;BME280;67610;51.588;7.002;2023-07-20T05:22:45;100709.03;;;19.18;65.61
78337;BME280;67610;51.588;7.002;2023-07-20T05:25:11;100711.91;;;19.17;65.51
78337;BME280;67610;51.588;7.002;2023-07-20T05:27:38;100712.28;;;19.27;65.17
78337;BME280;67610;51.588;7.002;2023-07-20T05:30:04;100712.50;;;19.25;65.54
78337;BME280;67610;51.588;7.002;2023-07-20T05:32:30;100714.97;;;19.27;65.64
78337;BME280;67610;51.588;7.002;2023-07-20T05:34:55;100717.22;;;19.30;65.57
78337;BME280;67610;51.588;7.002;2023-07-20T05:37:21;100714.41;;;19.38;64.93
78337;BME280;67610;51.588;7.002;2023-07-20T05:39:46;100716.25;;;19.37;64.72
78337;BME280;67610;51.588;7.002;2023-07-20T05:42:12;100711.91;;;19.30;64.76
78337;BME280;67610;51.588;7.002;2023-07-20T05:44:37;100726.69;;;19.26;64.77
78337;BME280;67610;51.588;7.002;2023-07-20T05:47:03;100720.91;;;19.29;64.62
78337;BME280;67610;51.588;7.002;2023-07-20T05:49:29;100723.59;;;19.55;64.14
78337;BME280;67610;51.588;7.002;2023-07-20T05:51:55;100721.16;;;20.17;63.54
78337;BME280;67610;51.588;7.002;2023-07-20T05:54:21;100727.63;;;20.48;63.01
78337;BME280;67610;51.588;7.002;2023-07-20T05:56:47;100728.06;;;20.45;62.40
78337;BME280;67610;51.588;7.002;2023-07-20T05:59:12;100730.75;;;20.38;62.22
78337;BME280;67610;51.588;7.002;2023-07-20T06:01:38;100731.59;;;20.39;62.20
78337;BME280;67610;51.588;7.002;2023-07-20T06:04:03;100739.41;;;20.34;61.86
78337;BME280;67610;51.588;7.002;2023-07-20T06:06:29;100736.34;;;20.30;61.29
78337;BME280;67610;51.588;7.002;2023-07-20T06:08:54;100737.78;;;20.33;61.08
78337;BME280;67610;51.588;7.002;2023-07-20T06:11:20;100736.78;;;20.20;61.35
78337;BME280;67610;51.588;7.002;2023-07-20T06:13:45;100743.34;;;20.25;61.17
78337;BME280;67610;51.588;7.002;2023-07-20T06:16:11;100742.94;;;20.21;60.74
78337;BME280;67610;51.588;7.002;2023-07-20T06:18:36;100744.63;;;20.09;60.89
78337;BME280;67610;51.588;7.002;2023-07-20T06:21:01;100743.41;;;19.98;60.93
78337;BME280;67610;51.588;7.002;2023-07-20T06:23:27;100749.22;;;19.89;60.99
78337;BME280;67610;51.588;7.002;2023-07-20T06:25:52;100749.22;;;19.89;61.50
78337;BME280;67610;51.588;7.002;2023-07-20T06:28:18;100753.81;;;20.19;60.73
78337;BME280;67610;51.588;7.002;2023-07-20T06:30:43;100764.66;;;20.38;60.49
78337;BME280;67610;51.588;7.002;2023-07-20T06:33:09;100762.94;;;20.94;58.76
78337;BME280;67610;51.588;7.002;2023-07-20T06:35:34;100758.31;;;21.39;57.59
78337;BME280;67610;51.588;7.002;2023-07-20T06:38:01;100754.47;;;21.28;58.33
78337;BME280;67610;51.588;7.002;2023-07-20T06:40:31;100754.81;;;21.38;57.69
78337;BME280;67610;51.588;7.002;2023-07-20T06:42:57;100767.13;;;21.46;57.34
78337;BME280;67610;51.588;7.002;2023-07-20T06:45:22;100763.28;;;21.35;57.23
78337;BME280;67610;51.588;7.002;2023-07-20T06:47:48;100765.59;;;21.32;56.69
78337;BME280;67610;51.588;7.002;2023-07-20T06:50:13;100761.41;;;21.11;56.19
78337;BME280;67610;51.588;7.002;2023-07-20T06:52:39;100765.19;;;20.97;56.81
78337;BME280;67610;51.588;7.002;2023-07-20T06:55:05;100762.72;;;20.96;56.97
78337;BME280;67610;51.588;7.002;2023-07-20T06:57:31;100766.81;;;20.98;56.39
78337;BME280;67610;51.588;7.002;2023-07-20T06:59:56;100771.78;;;20.95;56.23
78337;BME280;67610;51.588;7.002;2023-07-20T07:02:22;100763.66;;;21.39;56.14
78337;BME280;67610;51.588;7.002;2023-07-20T07:04:47;100760.81;;;21.34;56.06
78337;BME280;67610;51.588;7.002;2023-07-20T07:07:16;100774.38;;;21.82;54.89
78337;BME280;67610;51.588;7.002;2023-07-20T07:09:42;100769.63;;;22.56;53.31
78337;BME280;67610;51.588;7.002;2023-07-20T07:12:08;100772.16;;;22.51;53.90
78337;BME280;67610;51.588;7.002;2023-07-20T07:14:33;100772.44;;;23.21;52.36
78337;BME280;67610;51.588;7.002;2023-07-20T07:16:59;100788.16;;;24.05;49.91
78337;BME280;67610;51.588;7.002;2023-07-20T07:19:25;100782.56;;;24.58;48.83
78337;BME280;67610;51.588;7.002;2023-07-20T07:21:50;100784.78;;;24.49;48.59
78337;BME280;67610;51.588;7.002;2023-07-20T07:24:16;100784.41;;;24.57;48.24
78337;BME280;67610;51.588;7.002;2023-07-20T07:26:42;100782.00;;;24.72;47.62
78337;BME280;67610;51.588;7.002;2023-07-20T07:29:07;100781.47;;;24.98;46.46
78337;BME280;67610;51.588;7.002;2023-07-20T07:31:34;100779.53;;;25.60;44.89
78337;BME280;67610;51.588;7.002;2023-07-20T07:34:00;100784.13;;;26.15;44.48
78337;BME280;67610;51.588;7.002;2023-07-20T07:36:26;100793.38;;;26.41;43.54
78337;BME280;67610;51.588;7.002;2023-07-20T07:38:51;100785.91;;;26.26;42.89
78337;BME280;67610;51.588;7.002;2023-07-20T07:41:16;100794.38;;;25.96;43.08
78337;BME280;67610;51.588;7.002;2023-07-20T07:43:42;100788.94;;;25.58;42.97
78337;BME280;67610;51.588;7.002;2023-07-20T07:46:07;100797.16;;;25.35;44.02
78337;BME280;67610;51.588;7.002;2023-07-20T07:48:33;100801.31;;;25.42;41.93
78337;BME280;67610;51.588;7.002;2023-07-20T07:50:58;100803.59;;;25.84;42.83
78337;BME280;67610;51.588;7.002;2023-07-20T07:53:23;100798.75;;;26.19;41.46
78337;BME280;67610;51.588;7.002;2023-07-20T07:55:51;100794.00;;;26.09;38.55
78337;BME280;67610;51.588;7.002;2023-07-20T07:58:16;100798.53;;;26.04;41.09
78337;BME280;67610;51.588;7.002;2023-07-20T08:00:42;100800.56;;;26.78;40.27
78337;BME280;67610;51.588;7.002;2023-07-20T08:03:08;100795.75;;;27.39;37.92
78337;BME280;67610;51.588;7.002;2023-07-20T08:05:34;100797.16;;;27.83;37.04
78337;BME280;67610;51.588;7.002;2023-07-20T08:08:01;100799.84;;;28.20;36.87
78337;BME280;67610;51.588;7.002;2023-07-20T08:10:26;100812.03;;;28.22;37.30
78337;BME280;67610;51.588;7.002;2023-07-20T08:12:51;100810.84;;;28.03;37.89
78337;BME280;67610;51.588;7.002;2023-07-20T08:15:17;100811.50;;;28.25;36.56
78337;BME280;67610;51.588;7.002;2023-07-20T08:17:42;100822.03;;;28.89;34.65
78337;BME280;67610;51.588;7.002;2023-07-20T08:20:10;100820.44;;;29.08;32.08
78337;BME280;67610;51.588;7.002;2023-07-20T08:22:39;100817.22;;;29.11;34.20
78337;BME280;67610;51.588;7.002;2023-07-20T08:25:06;100824.56;;;29.46;32.42
78337;BME280;67610;51.588;7.002;2023-07-20T08:27:32;100824.84;;;29.85;33.12
78337;BME280;67610;51.588;7.002;2023-07-20T08:29:57;100820.91;;;30.31;31.50
78337;BME280;67610;51.588;7.002;2023-07-20T08:32:22;100820.47;;;30.73;31.12
78337;BME280;67610;51.588;7.002;2023-07-20T08:34:48;100824.38;;;31.05;30.41
78337;BME280;67610;51.588;7.002;2023-07-20T08:37:13;100820.59;;;31.45;31.49
78337;BME280;67610;51.588;7.002;2023-07-20T08:39:38;100819.72;;;31.79;28.25
78337;BME280;67610;51.588;7.002;2023-07-20T08:44:38;100823.38;;;30.86;30.71
78337;BME280;67610;51.588;7.002;2023-07-20T08:47:05;100822.69;;;31.15;30.25
78337;BME280;67610;51.588;7.002;2023-07-20T08:49:32;100826.94;;;31.26;29.84
78337;BME280;67610;51.588;7.002;2023-07-20T08:51:58;100820.19;;;31.57;28.66
78337;BME280;67610;51.588;7.002;2023-07-20T08:54:24;100829.69;;;31.88;28.29
78337;BME280;67610;51.588;7.002;2023-07-20T08:56:54;100824.25;;;32.17;27.28
78337;BME280;67610;51.588;7.002;2023-07-20T08:59:23;100823.91;;;32.23;26.64
78337;BME280;67610;51.588;7.002;2023-07-20T09:01:51;100821.59;;;32.54;26.75
78337;BME280;67610;51.588;7.002;2023-07-20T09:04:17;100828.59;;;32.84;26.94
78337;BME280;67610;51.588;7.002;2023-07-20T09:06:43;100824.69;;;33.08;25.35
78337;BME280;67610;51.588;7.002;2023-07-20T09:09:08;100825.97;;;32.55;25.37
78337;BME280;67610;51.588;7.002;2023-07-20T09:11:34;100829.09;;;32.20;25.39
78337;BME280;67610;51.588;7.002;2023-07-20T09:14:06;100826.03;;;32.50;25.33
78337;BME280;67610;51.588;7.002;2023-07-20T09:16:33;100833.41;;;32.87;24.62
78337;BME280;67610;51.588;7.002;2023-07-20T09:19:12;100823.94;;;33.03;24.65
78337;BME280;67610;51.588;7.002;2023-07-20T09:21:37;100826.97;;;33.20;24.72
78337;BME280;67610;51.588;7.002;2023-07-20T09:24:03;100829.63;;;33.25;24.43
78337;BME280;67610;51.588;7.002;2023-07-20T09:26:28;100825.44;;;33.46;24.68
78337;BME280;67610;51.588;7.002;2023-07-20T09:28:53;100821.69;;;33.74;23.66
78337;BME280;67610;51.588;7.002;2023-07-20T09:31:22;100819.38;;;33.95;24.12
78337;BME280;67610;51.588;7.002;2023-07-20T09:33:48;100827.22;;;34.15;24.02
78337;BME280;67610;51.588;7.002;2023-07-20T09:36:14;100822.19;;;34.22;23.89
78337;BME280;67610;51.588;7.002;2023-07-20T09:38:41;100823.59;;;34.06;23.92
78337;BME280;67610;51.588;7.002;2023-07-20T09:41:07;100820.59;;;33.75;24.20
78337;BME280;67610;51.588;7.002;2023-07-20T09:43:34;100823.78;;;34.10;23.64
78337;BME280;67610;51.588;7.002;2023-07-20T09:46:00;100826.16;;;33.98;24.26
78337;BME280;67610;51.588;7.002;2023-07-20T09:48:25;100834.16;;;33.48;24.28
78337;BME280;67610;51.588;7.002;2023-07-20T09:50:52;100818.38;;;33.45;24.12
78337;BME280;67610;51.588;7.002;2023-07-20T09:53:18;100816.72;;;33.44;21.91
78337;BME280;67610;51.588;7.002;2023-07-20T09:55:45;100823.03;;;33.26;23.75
78337;BME280;67610;51.588;7.002;2023-07-20T09:58:11;100809.22;;;33.23;23.94
78337;BME280;67610;51.588;7.002;2023-07-20T10:00:38;100815.00;;;33.35;22.24
78337;BME280;67610;51.588;7.002;2023-07-20T10:03:06;100808.56;;;33.44;21.96
78337;BME280;67610;51.588;7.002;2023-07-20T10:05:37;100812.09;;;33.45;22.69
78337;BME280;67610;51.588;7.002;2023-07-20T10:08:05;100811.28;;;33.44;22.62
78337;BME280;67610;51.588;7.002;2023-07-20T10:10:35;100805.47;;;33.51;22.45
78337;BME280;67610;51.588;7.002;2023-07-20T10:13:01;100801.03;;;33.23;22.62
78337;BME280;67610;51.588;7.002;2023-07-20T10:15:40;100798.53;;;33.07;22.65
78337;BME280;67610;51.588;7.002;2023-07-20T10:20:39;100807.13;;;33.65;22.54
78337;BME280;67610;51.588;7.002;2023-07-20T10:23:06;100812.41;;;33.43;23.01
78337;BME280;67610;51.588;7.002;2023-07-20T10:25:32;100815.56;;;33.50;22.95
78337;BME280;67610;51.588;7.002;2023-07-20T10:28:04;100815.63;;;33.64;22.85
78337;BME280;67610;51.588;7.002;2023-07-20T10:30:32;100806.69;;;33.58;22.49
78337;BME280;67610;51.588;7.002;2023-07-20T10:32:58;100809.38;;;33.91;22.84
78337;BME280;67610;51.588;7.002;2023-07-20T10:35:23;100805.97;;;33.99;21.94
78337;BME280;67610;51.588;7.002;2023-07-20T10:37:53;100811.66;;;34.16;21.01
78337;BME280;67610;51.588;7.002;2023-07-20T10:40:33;100805.38;;;34.15;21.94
78337;BME280;67610;51.588;7.002;2023-07-20T10:43:07;100794.94;;;34.58;20.85
78337;BME280;67610;51.588;7.002;2023-07-20T10:45:48;100796.09;;;34.79;20.20
78337;BME280;67610;51.588;7.002;2023-07-20T10:48:22;100793.69;;;34.78;20.70
78337;BME280;67610;51.588;7.002;2023-07-20T10:51:11;100796.94;;;34.66;21.12
78337;BME280;67610;51.588;7.002;2023-07-20T10:53:37;100791.72;;;34.92;21.24
78337;BME280;67610;51.588;7.002;2023-07-20T10:56:08;100790.56;;;35.06;20.02
78337;BME280;67610;51.588;7.002;2023-07-20T10:58:33;100778.81;;;35.28;18.84
78337;BME280;67610;51.588;7.002;2023-07-20T11:01:03;100776.19;;;35.23;18.94
78337;BME280;67610;51.588;7.002;2023-07-20T11:03:30;100778.63;;;35.25;19.73
78337;BME280;67610;51.588;7.002;2023-07-20T11:05:57;100778.94;;;35.23;20.11
78337;BME280;67610;51.588;7.002;2023-07-20T11:08:42;100780.56;;;34.88;19.63
78337;BME280;67610;51.588;7.002;2023-07-20T11:14:01;100775.19;;;33.80;20.59
78337;BME280;67610;51.588;7.002;2023-07-20T11:16:46;100773.38;;;33.89;21.65
78337;BME280;67610;51.588;7.002;2023-07-20T11:19:22;100772.81;;;34.05;21.39
78337;BME280;67610;51.588;7.002;2023-07-20T11:21:54;100764.28;;;33.93;20.50
78337;BME280;67610;51.588;7.002;2023-07-20T11:24:20;100755.78;;;33.67;20.75
78337;BME280;67610;51.588;7.002;2023-07-20T11:26:50;100754.41;;;33.51;21.23
78337;BME280;67610;51.588;7.002;2023-07-20T11:29:17;100757.63;;;33.40;21.44
78337;BME280;67610;51.588;7.002;2023-07-20T11:31:44;100749.00;;;33.19;21.43
78337;BME280;67610;51.588;7.002;2023-07-20T11:34:20;100750.03;;;32.49;21.84
78337;BME280;67610;51.588;7.002;2023-07-20T11:36:48;100748.63;;;32.32;22.13
78337;BME280;67610;51.588;7.002;2023-07-20T11:39:16;100751.16;;;32.05;22.35
78337;BME280;67610;51.588;7.002;2023-07-20T11:41:49;100745.91;;;31.61;23.04
78337;BME280;67610;51.588;7.002;2023-07-20T11:44:16;100744.72;;;31.39;22.99
78337;BME280;67610;51.588;7.002;2023-07-20T11:46:42;100747.06;;;31.22;23.54
78337;BME280;67610;51.588;7.002;2023-07-20T11:49:09;100742.47;;;31.22;23.43
78337;BME280;67610;51.588;7.002;2023-07-20T11:51:35;100741.34;;;30.84;23.32
78337;BME280;67610;51.588;7.002;2023-07-20T11:54:02;100743.38;;;30.69;23.51
78337;BME280;67610;51.588;7.002;2023-07-20T11:56:28;100749.66;;;30.64;24.05
78337;BME280;67610;51.588;7.002;2023-07-20T11:58:58;100742.00;;;30.12;24.43
78337;BME280;67610;51.588;7.002;2023-07-20T12:01:26;100740.81;;;29.19;25.27
78337;BME280;67610;51.588;7.002;2023-07-20T12:03:57;100740.81;;;29.09;26.34
78337;BME280;67610;51.588;7.002;2023-07-20T12:06:27;100739.22;;;29.23;26.47
78337;BME280;67610;51.588;7.002;2023-07-20T12:08:57;100736.72;;;29.52;26.66
78337;BME280;67610;51.588;7.002;2023-07-20T12:11:37;100730.19;;;29.73;25.96
78337;BME280;67610;51.588;7.002;2023-07-20T12:14:04;100736.41;;;29.73;25.19
78337;BME280;67610;51.588;7.002;2023-07-20T12:16:30;100728.59;;;29.62;24.79
78337;BME280;67610;51.588;7.002;2023-07-20T12:19:08;100728.88;;;29.40;24.97
78337;BME280;67610;51.588;7.002;2023-07-20T12:21:36;100734.56;;;29.09;25.37
78337;BME280;67610;51.588;7.002;2023-07-20T12:24:03;100723.97;;;28.82;25.15
78337;BME280;67610;51.588;7.002;2023-07-20T12:26:29;100726.16;;;28.80;24.92
78337;BME280;67610;51.588;7.002;2023-07-20T12:28:55;100714.72;;;28.58;25.74
78337;BME280;67610;51.588;7.002;2023-07-20T12:31:20;100720.72;;;28.65;25.65
78337;BME280;67610;51.588;7.002;2023-07-20T12:33:48;100719.94;;;28.69;26.02
78337;BME280;67610;51.588;7.002;2023-07-20T12:36:13;100714.50;;;28.79;25.71
78337;BME280;67610;51.588;7.002;2023-07-20T12:38:39;100709.66;;;28.76;25.90
78337;BME280;67610;51.588;7.002;2023-07-20T12:41:06;100711.78;;;28.64;26.47
78337;BME280;67610;51.588;7.002;2023-07-20T12:43:32;100711.78;;;28.64;26.96
78337;BME280;67610;51.588;7.002;2023-07-20T12:45:58;100711.28;;;28.72;27.22
78337;BME280;67610;51.588;7.002;2023-07-20T12:48:24;100714.75;;;28.68;26.12
78337;BME280;67610;51.588;7.002;2023-07-20T12:50:50;100707.66;;;28.52;25.86
78337;BME280;67610;51.588;7.002;2023-07-20T12:53:15;100706.31;;;28.44;26.50
78337;BME280;67610;51.588;7.002;2023-07-20T12:55:41;100705.75;;;28.37;26.82
78337;BME280;67610;51.588;7.002;2023-07-20T12:58:07;100700.63;;;28.51;26.45
78337;BME280;67610;51.588;7.002;2023-07-20T13:00:33;100700.91;;;28.44;27.07
78337;BME280;67610;51.588;7.002;2023-07-20T13:02:59;100700.69;;;28.71;26.86